sensor_id;sensor_type;location;lat;lon;timestamp;pressure;altitude;pressure_sealevel;temperature;humidity
73566;BME280;61846;52.970;-3.168;2023-03-11T00:00:35;100036.96;;;1.17;46.42
73566;BME280;61846;52.970;-3.168;2023-03-11T00:03:00;100031.22;;;2.38;44.44
73566;BME280;61846;52.970;-3.168;2023-03-11T00:05:26;100024.20;;;2.98;42.91
73566;BME280;61846;52.970;-3.168;2023-03-11T00:07:50;100020.69;;;3.20;42.84
73566;BME280;61846;52.970;-3.168;2023-03-11T00:10:17;100027.22;;;2.13;44.98
73566;BME280;61846;52.970;-3.168;2023-03-11T00:12:40;100026.32;;;2.52;44.24
73566;BME280;61846;52.970;-3.168;2023-03-11T00:15:07;100030.29;;;1.59;45.97
73566;BME280;61846;52.970;-3.168;2023-03-11T00:17:31;100027.03;;;3.46;43.60
73566;BME280;61846;52.970;-3.168;2023-03-11T00:19:57;100029.92;;;2.27;44.64
73566;BME280;61846;52.970;-3.168;2023-03-11T00:22:23;100029.24;;;3.07;43.34
73566;BME280;61846;52.970;-3.168;2023-03-11T00:24:48;100022.27;;;2.47;43.92
73566;BME280;61846;52.970;-3.168;2023-03-11T00:27:14;100021.18;;;2.25;45.14
73566;BME280;61846;52.970;-3.168;2023-03-11T00:29:39;100019.09;;;2.42;44.75
73566;BME280;61846;52.970;-3.168;2023-03-11T00:32:05;100017.32;;;1.87;45.83
73566;BME280;61846;52.970;-3.168;2023-03-11T00:34:29;100013.97;;;3.10;43.84
73566;BME280;61846;52.970;-3.168;2023-03-11T00:36:55;100012.94;;;2.77;44.23
73566;BME280;61846;52.970;-3.168;2023-03-11T00:39:21;100013.02;;;2.82;43.65
73566;BME280;61846;52.970;-3.168;2023-03-11T00:41:46;100013.31;;;1.84;45.23
73566;BME280;61846;52.970;-3.168;2023-03-11T00:44:11;100013.06;;;1.80;45.32
73566;BME280;61846;52.970;-3.168;2023-03-11T00:46:37;100014.06;;;0.84;47.84
73566;BME280;61846;52.970;-3.168;2023-03-11T00:49:03;100003.87;;;2.81;44.04
73566;BME280;61846;52.970;-3.168;2023-03-11T00:51:28;100006.31;;;3.18;42.71
73566;BME280;61846;52.970;-3.168;2023-03-11T00:53:53;100006.88;;;2.68;44.02
73566;BME280;61846;52.970;-3.168;2023-03-11T00:56:20;100010.24;;;3.29;43.50
73566;BME280;61846;52.970;-3.168;2023-03-11T00:58:44;100012.41;;;2.32;44.28
73566;BME280;61846;52.970;-3.168;2023-03-11T01:01:11;100014.90;;;2.06;44.93
73566;BME280;61846;52.970;-3.168;2023-03-11T01:03:35;100016.20;;;1.54;45.96
73566;BME280;61846;52.970;-3.168;2023-03-11T01:06:00;100019.55;;;1.28;46.37
73566;BME280;61846;52.970;-3.168;2023-03-11T01:08:25;100021.98;;;1.22;45.68
73566;BME280;61846;52.970;-3.168;2023-03-11T01:10:51;100025.01;;;1.17;46.78
73566;BME280;61846;52.970;-3.168;2023-03-11T01:13:16;100025.34;;;2.09;44.95
73566;BME280;61846;52.970;-3.168;2023-03-11T01:15:41;100023.66;;;2.41;44.41
73566;BME280;61846;52.970;-3.168;2023-03-11T01:18:06;100013.14;;;3.22;41.96
73566;BME280;61846;52.970;-3.168;2023-03-11T01:20:32;100008.88;;;2.44;43.41
73566;BME280;61846;52.970;-3.168;2023-03-11T01:22:57;100007.49;;;3.73;41.08
73566;BME280;61846;52.970;-3.168;2023-03-11T01:25:23;100005.09;;;3.05;42.27
73566;BME280;61846;52.970;-3.168;2023-03-11T01:27:49;100003.26;;;2.78;42.76
73566;BME280;61846;52.970;-3.168;2023-03-11T01:30:17;100005.58;;;3.55;41.12
73566;BME280;61846;52.970;-3.168;2023-03-11T01:32:40;100008.90;;;2.14;43.97
73566;BME280;61846;52.970;-3.168;2023-03-11T01:35:06;100010.02;;;2.26;43.85
73566;BME280;61846;52.970;-3.168;2023-03-11T01:37:31;100011.41;;;0.57;46.56
73566;BME280;61846;52.970;-3.168;2023-03-11T01:39:56;100011.61;;;0.45;47.38
73566;BME280;61846;52.970;-3.168;2023-03-11T01:42:22;100002.02;;;1.38;45.55
73566;BME280;61846;52.970;-3.168;2023-03-11T01:44:47;100001.10;;;1.52;45.72
73566;BME280;61846;52.970;-3.168;2023-03-11T01:49:38;99998.05;;;1.69;44.95
73566;BME280;61846;52.970;-3.168;2023-03-11T01:52:05;100004.34;;;0.01;48.09
73566;BME280;61846;52.970;-3.168;2023-03-11T01:54:31;99995.04;;;1.68;45.79
73566;BME280;61846;52.970;-3.168;2023-03-11T01:56:55;99991.97;;;1.57;45.16
73566;BME280;61846;52.970;-3.168;2023-03-11T01:59:23;99994.26;;;0.91;46.48
73566;BME280;61846;52.970;-3.168;2023-03-11T02:01:51;99988.77;;;1.01;45.94
73566;BME280;61846;52.970;-3.168;2023-03-11T02:04:12;99987.36;;;2.11;44.05
73566;BME280;61846;52.970;-3.168;2023-03-11T02:06:37;99985.27;;;1.63;45.50
73566;BME280;61846;52.970;-3.168;2023-03-11T02:09:03;99985.34;;;0.78;47.18
73566;BME280;61846;52.970;-3.168;2023-03-11T02:11:29;99982.50;;;1.26;46.46
73566;BME280;61846;52.970;-3.168;2023-03-11T02:13:57;99974.64;;;2.63;43.59
73566;BME280;61846;52.970;-3.168;2023-03-11T02:16:19;99977.41;;;1.40;45.44
73566;BME280;61846;52.970;-3.168;2023-03-11T02:18:44;99976.37;;;0.44;47.58
73566;BME280;61846;52.970;-3.168;2023-03-11T02:21:17;99974.60;;;1.88;45.17
73566;BME280;61846;52.970;-3.168;2023-03-11T02:23:43;99973.30;;;1.00;46.43
73566;BME280;61846;52.970;-3.168;2023-03-11T02:26:05;99977.86;;;0.41;47.45
73566;BME280;61846;52.970;-3.168;2023-03-11T02:28:27;99971.32;;;1.21;46.37
73566;BME280;61846;52.970;-3.168;2023-03-11T02:30:51;99967.51;;;0.66;46.92
73566;BME280;61846;52.970;-3.168;2023-03-11T02:33:18;99958.68;;;0.59;47.77
73566;BME280;61846;52.970;-3.168;2023-03-11T02:35:41;99954.81;;;1.82;44.82
73566;BME280;61846;52.970;-3.168;2023-03-11T02:38:07;99965.33;;;0.75;47.77
73566;BME280;61846;52.970;-3.168;2023-03-11T02:40:40;99968.61;;;0.28;48.44
73566;BME280;61846;52.970;-3.168;2023-03-11T02:42:59;99967.16;;;-0.11;49.59
73566;BME280;61846;52.970;-3.168;2023-03-11T02:45:24;99955.88;;;1.98;45.05
73566;BME280;61846;52.970;-3.168;2023-03-11T02:47:49;99958.05;;;0.43;47.95
73566;BME280;61846;52.970;-3.168;2023-03-11T02:50:15;99948.17;;;1.58;45.66
73566;BME280;61846;52.970;-3.168;2023-03-11T02:52:40;99954.10;;;0.26;48.00
73566;BME280;61846;52.970;-3.168;2023-03-11T02:55:06;99953.55;;;0.45;48.09
73566;BME280;61846;52.970;-3.168;2023-03-11T02:57:30;99941.49;;;2.65;43.96
73566;BME280;61846;52.970;-3.168;2023-03-11T02:59:55;99940.37;;;3.11;42.64
73566;BME280;61846;52.970;-3.168;2023-03-11T03:02:20;99940.82;;;2.90;42.42
73566;BME280;61846;52.970;-3.168;2023-03-11T03:04:46;99948.20;;;3.08;43.00
73566;BME280;61846;52.970;-3.168;2023-03-11T03:07:11;99948.19;;;3.16;42.35
73566;BME280;61846;52.970;-3.168;2023-03-11T03:09:37;99952.44;;;3.80;41.70
73566;BME280;61846;52.970;-3.168;2023-03-11T03:12:03;99954.47;;;2.78;43.10
73566;BME280;61846;52.970;-3.168;2023-03-11T03:14:27;99955.23;;;1.30;45.68
73566;BME280;61846;52.970;-3.168;2023-03-11T03:16:53;99954.50;;;1.01;46.57
73566;BME280;61846;52.970;-3.168;2023-03-11T03:19:18;99947.57;;;1.88;44.58
73566;BME280;61846;52.970;-3.168;2023-03-11T03:21:44;99943.42;;;1.46;45.65
73566;BME280;61846;52.970;-3.168;2023-03-11T03:24:09;99935.53;;;1.26;45.67
73566;BME280;61846;52.970;-3.168;2023-03-11T03:26:35;99933.49;;;1.07;46.67
73566;BME280;61846;52.970;-3.168;2023-03-11T03:29:00;99931.44;;;2.61;43.44
73566;BME280;61846;52.970;-3.168;2023-03-11T03:31:25;99927.07;;;2.49;43.66
73566;BME280;61846;52.970;-3.168;2023-03-11T03:33:51;99930.38;;;2.42;43.77
73566;BME280;61846;52.970;-3.168;2023-03-11T03:36:16;99932.75;;;3.68;42.12
73566;BME280;61846;52.970;-3.168;2023-03-11T03:38:42;99943.19;;;1.18;46.04
73566;BME280;61846;52.970;-3.168;2023-03-11T03:41:07;99939.89;;;2.07;45.10
73566;BME280;61846;52.970;-3.168;2023-03-11T03:43:32;99939.65;;;3.08;43.49
73566;BME280;61846;52.970;-3.168;2023-03-11T03:45:59;99945.15;;;2.10;43.99
73566;BME280;61846;52.970;-3.168;2023-03-11T03:48:23;99957.18;;;0.42;47.90
73566;BME280;61846;52.970;-3.168;2023-03-11T03:50:48;99966.21;;;-0.29;49.20
73566;BME280;61846;52.970;-3.168;2023-03-11T03:53:13;99965.69;;;0.58;48.91
73566;BME280;61846;52.970;-3.168;2023-03-11T03:55:39;99957.71;;;2.44;44.76
73566;BME280;61846;52.970;-3.168;2023-03-11T03:58:04;99951.16;;;3.01;43.33
73566;BME280;61846;52.970;-3.168;2023-03-11T04:00:30;99950.95;;;3.17;42.68
73566;BME280;61846;52.970;-3.168;2023-03-11T04:02:55;99952.19;;;3.69;42.16
73566;BME280;61846;52.970;-3.168;2023-03-11T04:05:21;99955.15;;;1.81;44.80
73566;BME280;61846;52.970;-3.168;2023-03-11T04:07:46;99958.36;;;2.01;44.42
73566;BME280;61846;52.970;-3.168;2023-03-11T04:10:13;99964.71;;;2.46;43.92
73566;BME280;61846;52.970;-3.168;2023-03-11T04:12:37;99960.26;;;3.02;42.89
73566;BME280;61846;52.970;-3.168;2023-03-11T04:15:03;99949.55;;;3.38;42.36
73566;BME280;61846;52.970;-3.168;2023-03-11T04:17:28;99941.06;;;3.31;42.42
73566;BME280;61846;52.970;-3.168;2023-03-11T04:19:53;99945.92;;;2.88;42.72
73566;BME280;61846;52.970;-3.168;2023-03-11T04:22:19;99942.19;;;3.13;42.50
73566;BME280;61846;52.970;-3.168;2023-03-11T04:24:44;99942.43;;;2.79;43.44
73566;BME280;61846;52.970;-3.168;2023-03-11T04:27:10;99943.52;;;2.34;45.08
73566;BME280;61846;52.970;-3.168;2023-03-11T04:29:35;99949.16;;;2.51;44.35
73566;BME280;61846;52.970;-3.168;2023-03-11T04:32:01;99954.54;;;2.43;43.62
73566;BME280;61846;52.970;-3.168;2023-03-11T04:34:26;99957.90;;;2.61;44.02
73566;BME280;61846;52.970;-3.168;2023-03-11T04:36:51;99958.37;;;2.96;43.56
73566;BME280;61846;52.970;-3.168;2023-03-11T04:39:16;99957.33;;;2.47;44.42
73566;BME280;61846;52.970;-3.168;2023-03-11T04:41:41;99959.69;;;2.23;44.66
73566;BME280;61846;52.970;-3.168;2023-03-11T04:44:07;99960.12;;;2.19;44.94
73566;BME280;61846;52.970;-3.168;2023-03-11T04:46:32;99962.16;;;1.01;47.22
73566;BME280;61846;52.970;-3.168;2023-03-11T04:48:58;99970.57;;;0.91;48.27
73566;BME280;61846;52.970;-3.168;2023-03-11T04:51:23;99971.14;;;2.07;45.44
73566;BME280;61846;52.970;-3.168;2023-03-11T04:53:48;99973.43;;;1.53;46.35
73566;BME280;61846;52.970;-3.168;2023-03-11T04:56:14;99975.40;;;1.90;44.97
73566;BME280;61846;52.970;-3.168;2023-03-11T04:58:39;99979.19;;;2.67;43.92
73566;BME280;61846;52.970;-3.168;2023-03-11T05:01:05;99978.97;;;2.57;45.18
73566;BME280;61846;52.970;-3.168;2023-03-11T05:03:30;99980.29;;;3.58;42.50
73566;BME280;61846;52.970;-3.168;2023-03-11T05:05:55;99988.26;;;2.05;45.30
73566;BME280;61846;52.970;-3.168;2023-03-11T05:08:22;99987.98;;;2.46;43.99
73566;BME280;61846;52.970;-3.168;2023-03-11T05:10:46;99985.19;;;2.76;43.76
73566;BME280;61846;52.970;-3.168;2023-03-11T05:13:12;99991.12;;;2.80;44.23
73566;BME280;61846;52.970;-3.168;2023-03-11T05:15:37;99997.14;;;3.03;43.37
73566;BME280;61846;52.970;-3.168;2023-03-11T05:18:03;99994.87;;;3.03;43.48
73566;BME280;61846;52.970;-3.168;2023-03-11T05:20:28;99992.91;;;3.49;42.57
73566;BME280;61846;52.970;-3.168;2023-03-11T05:22:54;99992.56;;;3.66;42.41
73566;BME280;61846;52.970;-3.168;2023-03-11T05:25:19;99992.02;;;4.01;42.04
73566;BME280;61846;52.970;-3.168;2023-03-11T05:27:45;100000.03;;;2.10;44.84
73566;BME280;61846;52.970;-3.168;2023-03-11T05:30:10;99998.00;;;3.61;42.41
73566;BME280;61846;52.970;-3.168;2023-03-11T05:32:36;99998.11;;;3.36;42.28
73566;BME280;61846;52.970;-3.168;2023-03-11T05:35:01;100000.69;;;3.49;41.85
73566;BME280;61846;52.970;-3.168;2023-03-11T05:37:26;100001.60;;;4.60;40.65
73566;BME280;61846;52.970;-3.168;2023-03-11T05:39:51;99999.63;;;4.71;40.31
73566;BME280;61846;52.970;-3.168;2023-03-11T05:42:17;99995.12;;;4.27;41.08
73566;BME280;61846;52.970;-3.168;2023-03-11T05:44:43;99985.88;;;4.28;41.07
73566;BME280;61846;52.970;-3.168;2023-03-11T05:47:08;99978.78;;;3.82;41.49
73566;BME280;61846;52.970;-3.168;2023-03-11T05:49:34;99991.32;;;3.25;42.82
73566;BME280;61846;52.970;-3.168;2023-03-11T05:51:59;100000.83;;;2.87;43.92
73566;BME280;61846;52.970;-3.168;2023-03-11T05:54:25;99999.57;;;1.70;45.31
73566;BME280;61846;52.970;-3.168;2023-03-11T05:56:50;100000.40;;;2.00;44.68
73566;BME280;61846;52.970;-3.168;2023-03-11T05:59:16;100001.17;;;3.00;44.07
73566;BME280;61846;52.970;-3.168;2023-03-11T06:01:42;99998.56;;;3.75;41.99
73566;BME280;61846;52.970;-3.168;2023-03-11T06:04:07;99990.91;;;3.86;41.93
73566;BME280;61846;52.970;-3.168;2023-03-11T06:06:32;99982.45;;;3.88;42.19
73566;BME280;61846;52.970;-3.168;2023-03-11T06:08:59;99986.19;;;3.98;42.62
73566;BME280;61846;52.970;-3.168;2023-03-11T06:11:23;100003.69;;;2.90;43.53
73566;BME280;61846;52.970;-3.168;2023-03-11T06:13:51;100008.43;;;3.53;43.22
73566;BME280;61846;52.970;-3.168;2023-03-11T06:16:14;100004.03;;;1.90;45.31
73566;BME280;61846;52.970;-3.168;2023-03-11T06:18:40;99997.17;;;3.61;43.07
73566;BME280;61846;52.970;-3.168;2023-03-11T06:21:06;99995.97;;;3.19;43.48
73566;BME280;61846;52.970;-3.168;2023-03-11T06:23:31;100000.64;;;3.11;43.39
73566;BME280;61846;52.970;-3.168;2023-03-11T06:25:58;100005.45;;;2.88;43.34
73566;BME280;61846;52.970;-3.168;2023-03-11T06:28:23;100003.64;;;3.77;42.24
73566;BME280;61846;52.970;-3.168;2023-03-11T06:30:48;100004.51;;;3.65;42.00
73566;BME280;61846;52.970;-3.168;2023-03-11T06:33:13;100006.11;;;3.51;42.70
73566;BME280;61846;52.970;-3.168;2023-03-11T06:35:38;100012.13;;;2.93;43.79
73566;BME280;61846;52.970;-3.168;2023-03-11T06:38:04;100011.23;;;4.01;41.75
73566;BME280;61846;52.970;-3.168;2023-03-11T06:40:29;100009.99;;;4.26;41.26
73566;BME280;61846;52.970;-3.168;2023-03-11T06:42:55;100012.05;;;4.24;41.05
73566;BME280;61846;52.970;-3.168;2023-03-11T06:45:20;100020.54;;;2.59;43.50
73566;BME280;61846;52.970;-3.168;2023-03-11T06:47:46;100020.47;;;2.14;44.33
73566;BME280;61846;52.970;-3.168;2023-03-11T06:50:12;100005.08;;;3.65;42.11
73566;BME280;61846;52.970;-3.168;2023-03-11T06:52:37;99992.70;;;3.98;41.50
73566;BME280;61846;52.970;-3.168;2023-03-11T06:55:04;99981.93;;;3.84;41.46
73566;BME280;61846;52.970;-3.168;2023-03-11T06:57:29;99969.92;;;3.96;41.24
73566;BME280;61846;52.970;-3.168;2023-03-11T06:59:54;99964.13;;;4.04;41.11
73566;BME280;61846;52.970;-3.168;2023-03-11T07:02:20;99970.18;;;3.10;41.99
73566;BME280;61846;52.970;-3.168;2023-03-11T07:04:48;99972.27;;;3.34;42.05
73566;BME280;61846;52.970;-3.168;2023-03-11T07:07:11;99975.63;;;3.59;41.63
73566;BME280;61846;52.970;-3.168;2023-03-11T07:09:36;99975.14;;;3.57;41.49
73566;BME280;61846;52.970;-3.168;2023-03-11T07:12:02;99980.92;;;2.65;42.69
73566;BME280;61846;52.970;-3.168;2023-03-11T07:14:27;99984.65;;;1.75;44.40
73566;BME280;61846;52.970;-3.168;2023-03-11T07:16:52;99988.77;;;0.97;46.30
73566;BME280;61846;52.970;-3.168;2023-03-11T07:19:18;99987.70;;;0.97;46.40
73566;BME280;61846;52.970;-3.168;2023-03-11T07:21:43;99984.31;;;2.23;44.24
73566;BME280;61846;52.970;-3.168;2023-03-11T07:24:11;99986.53;;;1.86;45.69
73566;BME280;61846;52.970;-3.168;2023-03-11T07:26:34;99979.31;;;3.27;42.83
73566;BME280;61846;52.970;-3.168;2023-03-11T07:29:00;99977.50;;;3.02;42.72
73566;BME280;61846;52.970;-3.168;2023-03-11T07:31:28;99979.58;;;3.73;42.08
73566;BME280;61846;52.970;-3.168;2023-03-11T07:33:52;99982.99;;;3.83;41.74
73566;BME280;61846;52.970;-3.168;2023-03-11T07:36:19;99979.72;;;2.36;43.51
73566;BME280;61846;52.970;-3.168;2023-03-11T07:38:43;99973.92;;;2.71;43.10
73566;BME280;61846;52.970;-3.168;2023-03-11T07:41:09;99974.37;;;3.26;42.26
73566;BME280;61846;52.970;-3.168;2023-03-11T07:43:34;99974.09;;;2.92;43.44
73566;BME280;61846;52.970;-3.168;2023-03-11T07:46:03;99977.91;;;3.23;42.50
73566;BME280;61846;52.970;-3.168;2023-03-11T07:48:25;99973.46;;;2.64;43.72
73566;BME280;61846;52.970;-3.168;2023-03-11T07:51:00;99973.62;;;3.56;42.68
73566;BME280;61846;52.970;-3.168;2023-03-11T07:53:16;99974.16;;;3.78;41.71
73566;BME280;61846;52.970;-3.168;2023-03-11T07:55:41;99979.50;;;3.38;42.54
73566;BME280;61846;52.970;-3.168;2023-03-11T07:58:07;99986.84;;;2.64;44.36
73566;BME280;61846;52.970;-3.168;2023-03-11T08:00:33;99983.99;;;3.05;43.02
73566;BME280;61846;52.970;-3.168;2023-03-11T08:02:58;99992.00;;;3.04;43.38
73566;BME280;61846;52.970;-3.168;2023-03-11T08:05:24;99991.90;;;3.84;42.84
73566;BME280;61846;52.970;-3.168;2023-03-11T08:07:49;99994.89;;;3.84;42.30
73566;BME280;61846;52.970;-3.168;2023-03-11T08:10:15;99993.89;;;3.43;42.11
73566;BME280;61846;52.970;-3.168;2023-03-11T08:12:40;99993.02;;;4.21;41.42
73566;BME280;61846;52.970;-3.168;2023-03-11T08:15:07;99986.10;;;4.16;41.57
73566;BME280;61846;52.970;-3.168;2023-03-11T08:17:31;99986.70;;;4.33;41.64
73566;BME280;61846;52.970;-3.168;2023-03-11T08:19:56;99987.15;;;4.24;41.22
73566;BME280;61846;52.970;-3.168;2023-03-11T08:22:22;99990.43;;;3.93;41.52
73566;BME280;61846;52.970;-3.168;2023-03-11T08:24:50;99984.47;;;3.43;41.85
73566;BME280;61846;52.970;-3.168;2023-03-11T08:27:12;99985.83;;;4.11;41.99
73566;BME280;61846;52.970;-3.168;2023-03-11T08:29:38;99990.94;;;2.37;44.49
73566;BME280;61846;52.970;-3.168;2023-03-11T08:32:04;99986.64;;;2.67;43.78
73566;BME280;61846;52.970;-3.168;2023-03-11T08:34:29;99982.38;;;3.24;43.31
73566;BME280;61846;52.970;-3.168;2023-03-11T08:36:54;99979.67;;;3.09;43.15
73566;BME280;61846;52.970;-3.168;2023-03-11T08:39:20;99977.73;;;4.11;42.73
73566;BME280;61846;52.970;-3.168;2023-03-11T08:41:45;99973.25;;;3.61;43.69
73566;BME280;61846;52.970;-3.168;2023-03-11T08:44:11;99971.63;;;4.51;42.21
73566;BME280;61846;52.970;-3.168;2023-03-11T08:46:37;99963.37;;;4.01;42.91
73566;BME280;61846;52.970;-3.168;2023-03-11T08:49:03;99965.05;;;4.15;41.76
73566;BME280;61846;52.970;-3.168;2023-03-11T08:51:28;99961.70;;;3.76;42.97
73566;BME280;61846;52.970;-3.168;2023-03-11T08:53:53;99960.13;;;3.91;43.43
73566;BME280;61846;52.970;-3.168;2023-03-11T08:56:19;99958.94;;;4.61;40.86
73566;BME280;61846;52.970;-3.168;2023-03-11T08:58:44;99958.87;;;4.86;40.07
73566;BME280;61846;52.970;-3.168;2023-03-11T09:01:10;99955.37;;;5.26;39.43
73566;BME280;61846;52.970;-3.168;2023-03-11T09:03:35;99954.42;;;4.23;40.08
73566;BME280;61846;52.970;-3.168;2023-03-11T09:06:01;99955.39;;;5.07;39.06
73566;BME280;61846;52.970;-3.168;2023-03-11T09:08:25;99957.75;;;5.06;39.71
73566;BME280;61846;52.970;-3.168;2023-03-11T09:10:51;99957.05;;;4.30;39.87
73566;BME280;61846;52.970;-3.168;2023-03-11T09:13:16;99962.00;;;5.01;39.19
73566;BME280;61846;52.970;-3.168;2023-03-11T09:15:42;99958.70;;;5.61;38.37
73566;BME280;61846;52.970;-3.168;2023-03-11T09:18:11;99959.89;;;4.68;39.84
73566;BME280;61846;52.970;-3.168;2023-03-11T09:20:36;99960.56;;;5.02;39.38
73566;BME280;61846;52.970;-3.168;2023-03-11T09:22:59;99966.09;;;3.96;39.90
73566;BME280;61846;52.970;-3.168;2023-03-11T09:25:25;99965.86;;;5.61;38.40
73566;BME280;61846;52.970;-3.168;2023-03-11T09:27:50;99967.02;;;5.60;38.09
73566;BME280;61846;52.970;-3.168;2023-03-11T09:30:16;99966.21;;;5.63;37.89
73566;BME280;61846;52.970;-3.168;2023-03-11T09:32:41;99966.91;;;5.94;37.11
73566;BME280;61846;52.970;-3.168;2023-03-11T09:35:06;99969.19;;;6.05;36.81
73566;BME280;61846;52.970;-3.168;2023-03-11T09:37:32;99972.54;;;3.77;39.23
73566;BME280;61846;52.970;-3.168;2023-03-11T09:39:57;99969.97;;;5.59;37.33
73566;BME280;61846;52.970;-3.168;2023-03-11T09:42:28;99972.05;;;6.53;35.04
73566;BME280;61846;52.970;-3.168;2023-03-11T09:44:55;99964.67;;;5.87;35.96
73566;BME280;61846;52.970;-3.168;2023-03-11T09:47:23;99965.00;;;6.31;35.94
73566;BME280;61846;52.970;-3.168;2023-03-11T09:49:49;99964.01;;;5.63;34.78
73566;BME280;61846;52.970;-3.168;2023-03-11T09:52:10;99961.57;;;6.43;35.13
73566;BME280;61846;52.970;-3.168;2023-03-11T09:54:37;99952.94;;;5.60;34.95
73566;BME280;61846;52.970;-3.168;2023-03-11T09:56:56;99940.37;;;5.52;36.54
73566;BME280;61846;52.970;-3.168;2023-03-11T09:59:29;99939.74;;;4.84;37.83
73566;BME280;61846;52.970;-3.168;2023-03-11T10:01:49;99936.91;;;6.07;36.28
73566;BME280;61846;52.970;-3.168;2023-03-11T10:04:15;99936.75;;;5.77;35.22
73566;BME280;61846;52.970;-3.168;2023-03-11T10:06:39;99931.47;;;7.15;33.76
73566;BME280;61846;52.970;-3.168;2023-03-11T10:09:11;99928.02;;;6.29;33.89
73566;BME280;61846;52.970;-3.168;2023-03-11T10:11:46;99925.62;;;6.62;33.28
73566;BME280;61846;52.970;-3.168;2023-03-11T10:14:03;99922.83;;;6.02;34.38
73566;BME280;61846;52.970;-3.168;2023-03-11T10:16:25;99928.00;;;5.79;33.72
73566;BME280;61846;52.970;-3.168;2023-03-11T10:18:54;99924.36;;;5.59;33.94
73566;BME280;61846;52.970;-3.168;2023-03-11T10:21:19;99926.95;;;4.14;35.15
73566;BME280;61846;52.970;-3.168;2023-03-11T10:23:52;99923.04;;;5.21;35.04
73566;BME280;61846;52.970;-3.168;2023-03-11T10:26:11;99924.90;;;5.61;35.23
73566;BME280;61846;52.970;-3.168;2023-03-11T10:28:32;99924.10;;;5.21;35.92
73566;BME280;61846;52.970;-3.168;2023-03-11T10:30:58;99921.19;;;4.50;36.04
73566;BME280;61846;52.970;-3.168;2023-03-11T10:33:25;99918.68;;;3.79;37.34
73566;BME280;61846;52.970;-3.168;2023-03-11T10:35:50;99916.23;;;4.21;37.43
73566;BME280;61846;52.970;-3.168;2023-03-11T10:38:14;99920.78;;;3.26;37.81
73566;BME280;61846;52.970;-3.168;2023-03-11T10:40:40;99917.00;;;5.50;36.75
73566;BME280;61846;52.970;-3.168;2023-03-11T10:43:04;99922.56;;;4.77;36.98
73566;BME280;61846;52.970;-3.168;2023-03-11T10:45:33;99924.03;;;4.58;37.14
73566;BME280;61846;52.970;-3.168;2023-03-11T10:47:55;99909.81;;;5.11;35.71
73566;BME280;61846;52.970;-3.168;2023-03-11T10:50:19;99899.34;;;6.82;34.79
73566;BME280;61846;52.970;-3.168;2023-03-11T10:55:15;99897.53;;;3.69;36.39
73566;BME280;61846;52.970;-3.168;2023-03-11T10:57:37;99889.43;;;5.48;35.43
73566;BME280;61846;52.970;-3.168;2023-03-11T11:00:04;99882.05;;;5.31;35.69
73566;BME280;61846;52.970;-3.168;2023-03-11T11:02:28;99881.13;;;5.50;36.11
73566;BME280;61846;52.970;-3.168;2023-03-11T11:05:03;99871.06;;;6.73;34.99
73566;BME280;61846;52.970;-3.168;2023-03-11T11:07:27;99877.05;;;5.09;36.17
73566;BME280;61846;52.970;-3.168;2023-03-11T11:09:43;99877.44;;;6.26;34.64
73566;BME280;61846;52.970;-3.168;2023-03-11T11:12:13;99880.10;;;4.88;37.20
73566;BME280;61846;52.970;-3.168;2023-03-11T11:14:45;99877.29;;;6.06;35.42
73566;BME280;61846;52.970;-3.168;2023-03-11T11:17:00;99876.32;;;7.11;34.35
73566;BME280;61846;52.970;-3.168;2023-03-11T11:19:26;99884.57;;;5.96;35.17
73566;BME280;61846;52.970;-3.168;2023-03-11T11:21:51;99883.59;;;5.45;35.12
73566;BME280;61846;52.970;-3.168;2023-03-11T11:24:20;99886.23;;;6.95;34.08
73566;BME280;61846;52.970;-3.168;2023-03-11T11:26:42;99886.17;;;5.77;34.93
73566;BME280;61846;52.970;-3.168;2023-03-11T11:29:13;99882.90;;;5.67;36.60
73566;BME280;61846;52.970;-3.168;2023-03-11T11:31:33;99888.14;;;3.86;38.21
73566;BME280;61846;52.970;-3.168;2023-03-11T11:33:59;99875.93;;;5.39;36.54
73566;BME280;61846;52.970;-3.168;2023-03-11T11:36:28;99879.22;;;4.45;37.80
73566;BME280;61846;52.970;-3.168;2023-03-11T11:38:52;99883.50;;;4.74;37.77
73566;BME280;61846;52.970;-3.168;2023-03-11T11:41:17;99876.71;;;5.49;36.87
73566;BME280;61846;52.970;-3.168;2023-03-11T11:43:47;99880.52;;;4.50;38.16
73566;BME280;61846;52.970;-3.168;2023-03-11T11:46:12;99883.46;;;3.87;40.03
73566;BME280;61846;52.970;-3.168;2023-03-11T11:48:38;99881.72;;;4.76;38.96
73566;BME280;61846;52.970;-3.168;2023-03-11T11:50:59;99886.87;;;3.70;40.09
73566;BME280;61846;52.970;-3.168;2023-03-11T11:53:27;99876.19;;;5.09;38.51
73566;BME280;61846;52.970;-3.168;2023-03-11T11:55:51;99875.59;;;5.89;45.76
73566;BME280;61846;52.970;-3.168;2023-03-11T11:58:14;99866.22;;;5.65;37.06
73566;BME280;61846;52.970;-3.168;2023-03-11T12:00:47;99868.24;;;4.80;37.91
73566;BME280;61846;52.970;-3.168;2023-03-11T12:03:24;99884.02;;;3.39;39.99
73566;BME280;61846;52.970;-3.168;2023-03-11T12:05:31;99878.02;;;3.98;40.27
73566;BME280;61846;52.970;-3.168;2023-03-11T12:08:05;99874.54;;;3.38;40.27
73566;BME280;61846;52.970;-3.168;2023-03-11T12:10:27;99863.00;;;4.44;39.62
73566;BME280;61846;52.970;-3.168;2023-03-11T12:13:08;99866.73;;;2.39;43.09
73566;BME280;61846;52.970;-3.168;2023-03-11T12:15:15;99858.12;;;4.65;40.12
73566;BME280;61846;52.970;-3.168;2023-03-11T12:17:40;99861.97;;;3.75;42.87
73566;BME280;61846;52.970;-3.168;2023-03-11T12:20:07;99861.19;;;4.43;39.99
73566;BME280;61846;52.970;-3.168;2023-03-11T12:22:44;99863.57;;;3.63;40.95
73566;BME280;61846;52.970;-3.168;2023-03-11T12:25:07;99847.23;;;5.04;41.84
73566;BME280;61846;52.970;-3.168;2023-03-11T12:27:24;99859.31;;;4.25;41.02
73566;BME280;61846;52.970;-3.168;2023-03-11T12:29:47;99852.07;;;2.75;43.39
73566;BME280;61846;52.970;-3.168;2023-03-11T12:32:23;99843.44;;;3.38;42.39
73566;BME280;61846;52.970;-3.168;2023-03-11T12:34:35;99842.54;;;3.88;42.26
73566;BME280;61846;52.970;-3.168;2023-03-11T12:37:01;99833.90;;;5.38;39.81
73566;BME280;61846;52.970;-3.168;2023-03-11T12:39:28;99827.37;;;4.77;40.60
73566;BME280;61846;52.970;-3.168;2023-03-11T12:44:23;99835.65;;;2.78;43.31
73566;BME280;61846;52.970;-3.168;2023-03-11T12:49:12;99826.76;;;5.09;40.83
73566;BME280;61846;52.970;-3.168;2023-03-11T12:51:39;99832.87;;;3.32;42.96
73566;BME280;61846;52.970;-3.168;2023-03-11T12:56:29;99835.00;;;2.47;46.23
73566;BME280;61846;52.970;-3.168;2023-03-11T12:59:01;99831.47;;;2.84;47.93